Time;durP1;ratioP1;P1;durP2;ratioP2;P2;SDS_P1;SDS_P2;PMS_P1;PMS_P2;Temp;Humidity;BMP_temperature;BMP_pressure;BME280_temperature;BME280_humidity;BME280_pressure;Samples;Min_cycle;Max_cycle;Signal;HPM_P1;HPM_P2
2023/08/20 00:02:20;;;;;;;6.78;2.50;;;19.50;99.90;;;;;;4897450;29;20048;-73
2023/08/20 00:04:48;;;;;;;8.40;2.38;;;19.50;99.90;;;;;;4897143;29;20517;-74
2023/08/20 00:07:15;;;;;;;8.02;2.63;;;19.70;99.90;;;;;;4865125;29;20045;-73
2023/08/20 00:09:41;;;;;;;9.02;2.67;;;19.50;99.90;;;;;;4880555;29;20055;-74
2023/08/20 00:12:09;;;;;;;11.68;3.13;;;19.50;99.90;;;;;;4880996;29;20123;-73
2023/08/20 00:15:07;;;;;;;8.18;3.47;;;19.60;99.90;;;;;;4880655;29;20090;-73
2023/08/20 00:17:38;;;;;;;8.63;2.60;;;19.50;99.90;;;;;;4880575;29;20512;-73
2023/08/20 00:20:10;;;;;;;5.63;2.55;;;19.60;99.90;;;;;;4865387;29;20045;-73
2023/08/20 00:22:36;;;;;;;6.20;3.00;;;19.60;99.90;;;;;;4880581;29;20489;-75
2023/08/20 00:25:05;;;;;;;7.05;2.85;;;19.40;99.90;;;;;;4896074;29;20750;-73
2023/08/20 00:27:34;;;;;;;7.47;2.40;;;19.60;99.90;;;;;;4897151;29;20044;-73
2023/08/20 00:30:00;;;;;;;7.13;2.63;;;19.30;99.90;;;;;;4897115;29;20037;-73
2023/08/20 00:32:26;;;;;;;6.90;2.45;;;19.10;99.90;;;;;;4865127;29;20123;-73
2023/08/20 00:34:52;;;;;;;6.93;3.03;;;;;;;;;;4880108;29;20120;-73
2023/08/20 00:37:21;;;;;;;3.42;2.50;;;19.10;99.90;;;;;;4909551;23;21215;-70
2023/08/20 00:40:15;;;;;;;;;;;;;;;;;;;;;
2023/08/20 00:42:46;;;;;;;5.80;2.33;;;19.30;99.90;;;;;;4898555;29;20120;-71
2023/08/20 00:45:18;;;;;;;7.15;2.47;;;19.00;99.90;;;;;;4915858;29;20075;-70
2023/08/20 00:47:57;;;;;;;4.85;2.30;;;19.10;99.90;;;;;;4899203;29;20461;-71
2023/08/20 00:50:31;;;;;;;7.40;2.83;;;;;;;;;;4883583;29;20048;-69
2023/08/20 00:53:29;;;;;;;6.43;2.88;;;19.10;99.90;;;;;;4899041;29;20052;-71
2023/08/20 00:56:21;;;;;;;8.90;2.67;;;19.20;99.90;;;;;;4883588;29;20555;-71
2023/08/20 00:59:11;;;;;;;9.43;3.22;;;19.10;99.90;;;;;;4882665;29;20532;-71
2023/08/20 01:01:45;;;;;;;8.50;3.05;;;19.40;99.90;;;;;;4867529;29;20082;-70
2023/08/20 01:04:19;;;;;;;6.43;3.28;;;19.20;99.90;;;;;;4883579;29;20067;-69
2023/08/20 01:07:07;;;;;;;5.15;2.67;;;19.40;99.90;;;;;;4898556;29;20131;-69
2023/08/20 01:10:09;;;;;;;7.90;2.60;;;19.20;99.90;;;;;;4883693;29;20048;-69
2023/08/20 01:13:04;;;;;;;7.43;3.17;;;19.20;99.90;;;;;;4888394;29;20048;-69
2023/08/20 01:15:48;;;;;;;7.32;3.00;;;19.00;99.90;;;;;;4900372;29;20111;-69
2023/08/20 01:18:43;;;;;;;7.78;3.28;;;19.20;99.90;;;;;;4885957;29;20048;-69
2023/08/20 01:21:50;;;;;;;9.93;4.05;;;19.10;99.90;;;;;;4901371;29;20083;-69
2023/08/20 01:24:34;;;;;;;8.73;3.75;;;19.00;99.90;;;;;;4901790;29;20048;-71
2023/08/20 01:27:40;;;;;;;;;;;;;;;;;;;;;
2023/08/20 01:30:21;;;;;;;5.95;2.90;;;19.00;99.90;;;;;;4917828;29;20562;-69
2023/08/20 01:32:50;;;;;;;6.90;2.78;;;19.00;99.90;;;;;;4901226;29;20040;-69
2023/08/20 01:35:35;;;;;;;5.70;2.75;;;18.80;99.90;;;;;;4900731;29;20036;-69
2023/08/20 01:38:27;;;;;;;3.97;2.90;;;18.80;99.90;;;;;;4901360;29;20464;-69
2023/08/20 01:41:06;;;;;;;7.95;3.80;;;18.80;99.90;;;;;;4885698;29;20040;-70
2023/08/20 01:43:37;;;;;;;8.15;3.40;;;18.90;99.90;;;;;;4901112;29;20051;-70
2023/08/20 01:46:13;;;;;;;4.70;2.97;;;19.00;99.90;;;;;;4886881;29;20048;-70
2023/08/20 01:49:01;;;;;;;5.75;3.10;;;19.10;99.90;;;;;;4901588;29;20043;-69
2023/08/20 01:51:51;;;;;;;8.63;3.25;;;18.90;99.90;;;;;;4901739;29;20080;-69
2023/08/20 01:54:37;;;;;;;8.52;3.60;;;19.10;99.90;;;;;;4887237;29;20055;-69
2023/08/20 01:57:40;;;;;;;9.30;3.55;;;21.00;99.90;;;;;;4919129;29;20040;-70
2023/08/20 02:00:34;;;;;;;8.33;3.93;;;19.20;99.90;;;;;;4901103;29;20040;-71
2023/08/20 02:03:33;;;;;;;6.85;3.63;;;20.10;99.90;;;;;;4901102;29;20618;-69
2023/08/20 02:09:38;;;;;;;9.05;4.00;;;19.20;99.90;;;;;;4904141;29;20043;-71
2023/08/20 02:12:09;;;;;;;9.30;4.03;;;19.30;99.90;;;;;;4917078;29;20058;-69
2023/08/20 02:15:08;;;;;;;12.02;4.47;;;19.00;99.90;;;;;;4917544;29;20536;-69
2023/08/20 02:17:51;;;;;;;6.82;3.50;;;19.00;99.90;;;;;;4916370;29;20051;-69
2023/08/20 02:20:41;;;;;;;11.93;4.32;;;19.00;99.90;;;;;;4900950;29;20046;-69
2023/08/20 02:23:12;;;;;;;9.50;4.70;;;19.00;99.90;;;;;;4899450;29;20052;-69
2023/08/20 02:25:55;;;;;;;12.50;4.60;;;19.00;99.90;;;;;;4885110;29;20040;-69
2023/08/20 02:28:23;;;;;;;9.82;4.63;;;19.20;99.90;;;;;;4900434;29;20036;-69
2023/08/20 02:31:00;;;;;;;8.95;4.03;;;19.00;99.90;;;;;;4900767;29;20134;-70
2023/08/20 02:33:37;;;;;;;9.77;4.28;;;19.10;99.90;;;;;;4916020;29;20111;-69
2023/08/20 02:36:12;;;;;;;10.30;4.53;;;18.90;99.90;;;;;;4917651;29;20044;-71
2023/08/20 02:38:48;;;;;;;;;;;;;;;;;;;;;
2023/08/20 02:41:34;;;;;;;12.77;5.07;;;19.20;99.90;;;;;;4912154;29;20508;-71
2023/08/20 02:44:08;;;;;;;9.80;4.38;;;19.00;99.90;;;;;;4884615;29;20528;-70
2023/08/20 02:49:38;;;;;;;7.60;4.07;;;19.00;99.90;;;;;;4884385;29;20052;-69
2023/08/20 02:52:43;;;;;;;7.38;4.45;;;18.70;99.90;;;;;;4885022;29;20052;-70
2023/08/20 02:55:21;;;;;;;10.75;4.40;;;18.90;99.90;;;;;;4884919;29;20643;-70
2023/08/20 02:58:08;;;;;;;;;;;;;;;;;;;;;
2023/08/20 03:01:10;;;;;;;6.63;4.15;;;18.70;99.90;;;;;;4916788;29;20563;-69
2023/08/20 03:03:41;;;;;;;7.13;4.43;;;18.90;99.90;;;;;;4898034;29;20059;-69
2023/08/20 03:06:58;;;;;;;7.55;4.40;;;18.70;99.90;;;;;;4916829;29;20047;-70
2023/08/20 03:09:25;;;;;;;9.85;4.50;;;;;;;;;;4898786;29;20571;-69
2023/08/20 03:12:02;;;;;;;9.57;4.80;;;18.70;99.90;;;;;;4916526;29;20063;-69
2023/08/20 03:14:41;;;;;;;11.80;5.10;;;18.80;99.90;;;;;;4899990;29;20044;-71
2023/08/20 03:17:23;;;;;;;8.23;4.63;;;18.90;99.90;;;;;;4884521;29;20051;-69
2023/08/20 03:20:07;;;;;;;10.27;4.38;;;18.80;99.90;;;;;;4897621;29;20134;-71
2023/08/20 03:22:54;;;;;;;7.85;4.10;;;18.90;99.90;;;;;;4916594;29;20040;-73
2023/08/20 03:26:07;;;;;;;6.53;4.82;;;18.60;99.90;;;;;;4916379;29;20036;-69
2023/08/20 03:28:52;;;;;;;8.82;4.57;;;18.70;99.90;;;;;;4915269;29;20416;-69
2023/08/20 03:31:49;;;;;;;;;;;19.00;99.90;;;;;;4899985;29;20040;-69
2023/08/20 03:34:37;;;;;;;6.00;4.05;;;18.60;99.90;;;;;;4898888;29;19926;-69
2023/08/20 03:37:21;;;;;;;9.05;4.60;;;18.70;99.90;;;;;;4901124;29;20048;-71
2023/08/20 03:39:57;;;;;;;10.60;4.43;;;;;;;;;;4916214;29;20044;-69
2023/08/20 03:42:32;;;;;;;8.32;4.65;;;;;;;;;;4897111;29;20052;-69
2023/08/20 03:45:09;;;;;;;9.45;4.88;;;18.80;99.90;;;;;;4899088;29;20115;-69
2023/08/20 03:47:46;;;;;;;10.90;5.05;;;18.70;99.90;;;;;;4899127;29;20044;-69
2023/08/20 03:50:13;;;;;;;12.68;4.88;;;;;;;;;;4899264;29;20036;-70
2023/08/20 03:52:46;;;;;;;12.00;5.03;;;18.40;99.90;;;;;;4899301;29;20052;-70
2023/08/20 03:55:20;;;;;;;8.68;4.43;;;;;;;;;;4914839;29;20584;-69
2023/08/20 03:57:48;;;;;;;8.05;4.70;;;18.40;99.90;;;;;;4914751;29;20044;-70
2023/08/20 04:00:29;;;;;;;10.55;5.45;;;18.50;99.90;;;;;;4883692;29;20465;-71
2023/08/20 04:03:20;;;;;;;9.25;4.70;;;20.30;99.90;;;;;;4914781;29;20095;-69
2023/08/20 04:05:49;;;;;;;11.43;4.97;;;18.60;99.90;;;;;;4899232;29;20050;-69
2023/08/20 04:08:25;;;;;;;12.32;5.53;;;18.60;99.90;;;;;;4899918;29;20131;-70
2023/08/20 04:11:10;;;;;;;12.82;5.47;;;18.80;99.90;;;;;;4884804;29;20088;-70
2023/08/20 04:13:49;;;;;;;;;;;;;;;;;;;;;
2023/08/20 04:16:21;;;;;;;14.63;5.13;;;18.90;99.90;;;;;;4897546;29;20283;-69
2023/08/20 04:21:51;;;;;;;9.38;5.50;;;18.90;99.90;;;;;;4914510;29;20044;-70
2023/08/20 04:24:49;;;;;;;11.75;6.75;;;18.40;99.90;;;;;;4899476;29;20118;-70
2023/08/20 04:27:17;;;;;;;13.70;6.25;;;;;;;;;;4893790;29;20056;-69
2023/08/20 04:30:01;;;;;;;;;;;;;;;;;;;;;
2023/08/20 04:32:57;;;;;;;12.50;5.75;;;18.60;99.90;;;;;;4898607;29;20098;-69
2023/08/20 04:35:32;;;;;;;12.10;6.60;;;18.90;99.90;;;;;;4898968;29;20052;-70
2023/08/20 04:38:28;;;;;;;13.30;5.50;;;18.90;99.90;;;;;;4915836;29;20036;-69
2023/08/20 04:41:31;;;;;;;12.20;5.97;;;19.00;99.90;;;;;;4898503;29;20040;-69
2023/08/20 04:44:03;;;;;;;9.82;5.47;;;;;;;;;;4883482;29;20040;-69
2023/08/20 04:46:41;;;;;;;12.55;6.90;;;18.70;99.90;;;;;;4900992;29;20456;-69
2023/08/20 04:49:13;;;;;;;11.77;5.82;;;;;;;;;;4902260;29;20043;-69
2023/08/20 04:51:44;;;;;;;12.38;5.95;;;;;;;;;;4902128;29;20048;-69
2023/08/20 04:54:19;;;;;;;13.82;6.47;;;18.70;99.90;;;;;;4919105;29;20404;-69
2023/08/20 04:56:55;;;;;;;9.07;5.63;;;;;;;;;;4920129;29;20046;-69
2023/08/20 04:59:51;;;;;;;;;;;;;;;;;;;;;
2023/08/20 05:02:36;;;;;;;20.27;7.38;;;18.80;99.90;;;;;;4901331;29;20057;-69
2023/08/20 05:05:37;;;;;;;12.65;5.95;;;19.10;99.90;;;;;;4920310;29;20047;-69
2023/08/20 05:08:03;;;;;;;14.57;5.50;;;18.90;99.90;;;;;;4900153;29;20050;-69
2023/08/20 05:10:44;;;;;;;11.25;6.50;;;18.70;99.90;;;;;;4902753;29;20052;-69
2023/08/20 05:13:13;;;;;;;11.38;6.05;;;18.80;99.90;;;;;;4902020;29;20108;-69
2023/08/20 05:15:50;;;;;;;11.75;5.82;;;18.80;99.90;;;;;;4918791;29;20043;-70
2023/08/20 05:18:37;;;;;;;10.82;6.05;;;19.20;99.90;;;;;;4901569;29;20083;-70
2023/08/20 05:21:08;;;;;;;9.90;5.90;;;19.00;99.90;;;;;;4885977;29;20480;-69
2023/08/20 05:23:48;;;;;;;8.80;5.57;;;19.10;99.90;;;;;;4901674;29;20048;-71
2023/08/20 05:26:37;;;;;;;9.65;5.38;;;19.20;99.90;;;;;;4918421;29;20209;-70
2023/08/20 05:29:21;;;;;;;8.73;5.78;;;19.20;99.90;;;;;;4901786;29;20044;-69
2023/08/20 05:32:23;;;;;;;15.07;5.85;;;18.90;99.90;;;;;;4918372;29;20167;-71
2023/08/20 05:34:55;;;;;;;10.25;5.63;;;;;;;;;;4901838;29;20063;-69
2023/08/20 05:37:44;;;;;;;12.13;6.03;;;17.30;99.90;;;;;;4917525;29;20051;-69
2023/08/20 05:40:23;;;;;;;15.13;5.95;;;;;;;;;;4915799;29;20052;-69
2023/08/20 05:42:49;;;;;;;14.63;5.88;;;;;;;;;;4918284;29;20062;-69
2023/08/20 05:45:19;;;;;;;11.30;5.40;;;;;;;;;;4917964;29;20072;-69
2023/08/20 05:48:13;;;;;;;10.88;5.35;;;19.50;99.90;;;;;;4916996;29;20037;-71
2023/08/20 05:50:48;;;;;;;11.60;5.50;;;19.50;99.90;;;;;;4918279;29;20048;-69
2023/08/20 05:53:19;;;;;;;10.98;5.43;;;19.60;99.90;;;;;;4898751;29;20075;-69
2023/08/20 05:55:48;;;;;;;9.15;4.82;;;;;;;;;;4901071;29;20040;-69
2023/08/20 05:58:35;;;;;;;14.48;5.70;;;19.90;99.90;;;;;;4917637;29;20050;-69
2023/08/20 06:01:12;;;;;;;15.00;6.28;;;19.90;99.90;;;;;;4901713;29;20044;-69
2023/08/20 06:04:07;;;;;;;14.82;5.47;;;19.90;99.90;;;;;;4917677;29;20031;-70
2023/08/20 06:06:59;;;;;;;;;;;;;;;;;;;;;
2023/08/20 06:09:33;;;;;;;13.18;5.53;;;20.30;99.90;;;;;;4900964;29;20044;-69
2023/08/20 06:12:28;;;;;;;13.35;5.65;;;20.00;99.90;;;;;;4900933;29;20044;-69
2023/08/20 06:18:20;;;;;;;16.17;5.90;;;20.30;99.90;;;;;;4917690;29;20099;-70
2023/08/20 06:20:46;;;;;;;9.30;5.00;;;;;;;;;;4900859;29;20071;-70
2023/08/20 06:23:22;;;;;;;;;;;;;;;;;;;;;
2023/08/20 06:26:03;;;;;;;17.25;6.28;;;20.50;99.90;;;;;;4900596;29;20500;-69
2023/08/20 06:28:55;;;;;;;14.00;5.47;;;20.50;99.90;;;;;;4885442;29;20055;-69
2023/08/20 06:31:27;;;;;;;16.75;6.00;;;20.70;99.90;;;;;;4900180;29;20403;-69
2023/08/20 06:34:16;;;;;;;12.77;5.28;;;20.80;99.90;;;;;;4901724;29;20042;-70
2023/08/20 06:36:44;;;;;;;14.45;4.70;;;;;;;;;;4900033;29;20032;-69
2023/08/20 06:39:10;;;;;;;13.90;5.32;;;21.10;99.90;;;;;;4955350;23;20467;-70
2023/08/20 06:41:36;;;;;;;20.77;7.18;;;21.30;99.90;;;;;;4918385;29;20039;-70
2023/08/20 06:44:02;;;;;;;19.45;6.13;;;21.20;99.90;;;;;;4918377;29;20040;-71
2023/08/20 06:46:28;;;;;;;12.07;5.32;;;21.40;99.90;;;;;;4934638;29;20408;-70
2023/08/20 06:48:54;;;;;;;16.20;4.65;;;;;;;;;;4918181;29;20494;-70
2023/08/20 06:51:21;;;;;;;12.73;5.68;;;21.30;99.90;;;;;;4918357;29;20044;-71
2023/08/20 06:53:47;;;;;;;14.77;6.80;;;;;;;;;;4918083;29;20052;-70
2023/08/20 06:56:13;;;;;;;16.92;5.93;;;21.70;99.90;;;;;;4902737;29;20039;-70
2023/08/20 06:58:40;;;;;;;18.70;6.38;;;21.50;99.90;;;;;;4918366;29;20497;-70
2023/08/20 07:01:09;;;;;;;12.23;5.80;;;21.90;99.90;;;;;;4918483;29;20055;-70
2023/08/20 07:03:38;;;;;;;18.38;5.88;;;21.90;99.90;;;;;;4918409;29;20172;-70
2023/08/20 07:06:04;;;;;;;11.85;5.30;;;21.90;99.90;;;;;;4902873;29;20090;-70
2023/08/20 07:08:30;;;;;;;19.75;6.43;;;22.20;99.90;;;;;;4901853;29;20122;-70
2023/08/20 07:10:55;;;;;;;17.73;6.38;;;22.20;99.90;;;;;;4918150;29;20043;-70
2023/08/20 07:13:22;;;;;;;16.35;6.80;;;22.20;99.90;;;;;;4918013;29;20048;-70
2023/08/20 07:15:48;;;;;;;22.85;6.55;;;22.10;99.90;;;;;;4935060;29;20039;-69
2023/08/20 07:18:15;;;;;;;18.60;6.40;;;22.00;99.90;;;;;;4902105;29;20043;-69
2023/08/20 07:20:44;;;;;;;15.15;6.13;;;22.20;99.90;;;;;;4918011;29;20043;-70
2023/08/20 07:23:10;;;;;;;18.85;6.50;;;22.50;99.90;;;;;;4917580;29;20040;-69
2023/08/20 07:25:37;;;;;;;18.33;5.63;;;22.90;99.90;;;;;;4917829;29;20046;-70
2023/08/20 07:28:08;;;;;;;18.80;5.97;;;22.90;99.90;;;;;;4917640;29;20094;-70
2023/08/20 07:30:34;;;;;;;14.23;4.70;;;22.80;99.90;;;;;;4917946;29;20050;-70
2023/08/20 07:33:00;;;;;;;17.75;5.95;;;23.00;99.90;;;;;;4917748;29;20044;-70
2023/08/20 07:35:26;;;;;;;14.85;4.38;;;22.50;99.90;;;;;;4917586;29;20040;-70
2023/08/20 07:37:52;;;;;;;15.30;4.78;;;22.90;99.90;;;;;;4917426;29;20067;-70
2023/08/20 07:40:18;;;;;;;16.00;4.78;;;23.30;99.90;;;;;;4917603;29;20078;-70
2023/08/20 07:42:44;;;;;;;16.13;5.40;;;23.10;99.90;;;;;;4917541;29;20141;-70
2023/08/20 07:45:10;;;;;;;16.00;5.18;;;23.10;99.90;;;;;;4901708;29;20035;-70
2023/08/20 07:47:37;;;;;;;12.88;3.88;;;23.20;99.90;;;;;;4917950;29;20415;-70
2023/08/20 07:50:04;;;;;;;14.13;4.38;;;23.60;99.90;;;;;;4917603;29;20044;-70
2023/08/20 07:52:30;;;;;;;12.90;4.20;;;23.80;99.90;;;;;;4917720;29;20535;-70
2023/08/20 07:54:56;;;;;;;13.90;4.20;;;23.70;99.90;;;;;;4917295;29;20118;-70
2023/08/20 07:57:23;;;;;;;16.83;5.05;;;23.70;99.90;;;;;;4917275;29;20573;-71
2023/08/20 07:59:52;;;;;;;14.05;3.90;;;23.70;99.90;;;;;;4917390;29;20130;-70
2023/08/20 08:02:18;;;;;;;18.48;4.60;;;23.80;99.90;;;;;;4917306;29;20051;-70
2023/08/20 08:04:43;;;;;;;18.23;5.35;;;24.20;99.90;;;;;;4917395;29;20044;-70
2023/08/20 08:07:11;;;;;;;11.60;4.25;;;24.10;99.90;;;;;;4901918;29;20043;-70
2023/08/20 08:09:36;;;;;;;11.75;3.95;;;23.90;99.90;;;;;;4917241;29;20047;-70
2023/08/20 08:12:03;;;;;;;14.05;3.63;;;23.90;99.90;;;;;;4917278;29;20069;-70
2023/08/20 08:14:28;;;;;;;14.15;4.35;;;24.10;99.90;;;;;;4917060;29;20052;-70
2023/08/20 08:16:54;;;;;;;12.23;3.65;;;24.30;99.90;;;;;;4901610;29;20042;-70
2023/08/20 08:19:20;;;;;;;13.60;3.22;;;24.40;99.90;;;;;;4917245;29;20054;-69
2023/08/20 08:21:46;;;;;;;11.02;3.30;;;24.40;99.90;;;;;;4920768;29;20050;-71
2023/08/20 08:24:13;;;;;;;8.73;3.40;;;24.60;99.90;;;;;;4920861;29;20031;-70
2023/08/20 08:26:39;;;;;;;12.93;3.42;;;24.60;99.90;;;;;;4905431;29;20146;-70
2023/08/20 08:29:06;;;;;;;14.25;4.05;;;24.60;99.90;;;;;;4937973;29;20536;-70
2023/08/20 08:31:32;;;;;;;14.20;3.88;;;24.90;99.90;;;;;;4920762;29;20537;-70
2023/08/20 08:33:58;;;;;;;12.07;3.85;;;25.00;99.90;;;;;;4920640;29;20464;-70
2023/08/20 08:36:27;;;;;;;12.35;3.33;;;25.00;99.90;;;;;;4937870;29;20135;-70
2023/08/20 08:38:53;;;;;;;11.02;3.08;;;24.90;99.90;;;;;;4920669;29;20512;-70
2023/08/20 08:41:25;;;;;;;15.02;3.95;;;24.70;99.90;;;;;;4920672;29;20070;-71
2023/08/20 08:43:51;;;;;;;7.47;3.47;;;24.80;99.90;;;;;;4905051;29;20173;-71
2023/08/20 08:46:17;;;;;;;8.75;3.20;;;24.90;99.90;;;;;;4921564;29;20043;-70
2023/08/20 08:48:45;;;;;;;11.95;3.28;;;24.90;99.90;;;;;;4920739;29;20032;-71
2023/08/20 08:51:14;;;;;;;10.55;2.88;;;25.10;99.90;;;;;;4920609;29;20043;-70
2023/08/20 08:53:43;;;;;;;14.18;3.97;;;24.90;99.90;;;;;;4920611;29;20403;-70
2023/08/20 08:56:09;;;;;;;12.43;3.08;;;25.00;99.90;;;;;;4920537;29;20070;-70
2023/08/20 08:58:35;;;;;;;9.18;3.00;;;24.70;99.90;;;;;;4920353;29;20039;-70
2023/08/20 09:01:00;;;;;;;7.80;2.75;;;24.50;99.90;;;;;;4920173;29;20046;-70
2023/08/20 09:03:26;;;;;;;11.70;3.88;;;24.90;99.90;;;;;;4920151;29;20035;-70
2023/08/20 09:05:58;;;;;;;10.68;3.10;;;25.10;99.90;;;;;;4920537;29;20106;-70
2023/08/20 09:08:31;;;;;;;17.87;3.77;;;25.00;99.90;;;;;;4920196;29;20526;-69
2023/08/20 09:10:58;;;;;;;;;;;25.00;99.90;;;;;;4920549;29;20287;-71
2023/08/20 09:13:41;;;;;;;10.23;2.30;;;25.10;99.90;;;;;;4920225;29;20010;-70
2023/08/20 09:16:09;;;;;;;20.98;4.15;;;24.90;99.90;;;;;;4920149;29;20051;-70
2023/08/20 09:18:45;;;;;;;8.38;2.63;;;25.00;99.90;;;;;;4904261;29;20047;-70
2023/08/20 09:21:12;;;;;;;11.43;3.13;;;25.10;99.90;;;;;;4920195;29;20408;-70
2023/08/20 09:23:39;;;;;;;16.58;3.33;;;25.30;99.90;;;;;;4919843;29;20044;-70
2023/08/20 09:26:06;;;;;;;15.18;2.67;;;25.40;99.90;;;;;;4919842;29;20044;-70
2023/08/20 09:28:43;;;;;;;12.43;2.83;;;25.00;99.90;;;;;;4919782;29;20075;-70
2023/08/20 09:31:09;;;;;;;9.85;3.15;;;25.00;99.90;;;;;;4936720;29;20164;-70
2023/08/20 09:33:35;;;;;;;14.55;2.75;;;24.80;99.90;;;;;;4936857;29;20052;-70
2023/08/20 09:36:03;;;;;;;9.02;2.70;;;25.00;99.90;;;;;;4920011;29;20046;-70
2023/08/20 09:38:28;;;;;;;9.98;2.47;;;25.40;99.90;;;;;;4919638;29;20122;-70
2023/08/20 09:40:56;;;;;;;7.60;2.40;;;25.40;99.90;;;;;;4919576;29;20131;-70
2023/08/20 09:43:29;;;;;;;8.57;2.60;;;25.70;99.90;;;;;;4903744;29;20040;-70
2023/08/20 09:45:56;;;;;;;11.50;3.15;;;25.80;99.90;;;;;;4936862;29;20490;-70
2023/08/20 09:48:24;;;;;;;8.73;2.30;;;25.70;99.90;;;;;;4903972;29;20451;-71
2023/08/20 09:50:54;;;;;;;12.30;2.47;;;25.90;99.90;;;;;;4919545;29;20044;-70
2023/08/20 09:53:44;;;;;;;7.72;2.33;;;26.10;99.90;;;;;;4919356;29;20050;-70
2023/08/20 09:56:19;;;;;;;8.35;2.00;;;26.00;99.90;;;;;;4919581;29;20106;-71
2023/08/20 09:58:46;;;;;;;10.80;2.10;;;26.40;99.90;;;;;;4919317;29;20040;-70
2023/08/20 10:01:12;;;;;;;11.25;2.63;;;26.40;99.90;;;;;;4919360;29;20252;-70
2023/08/20 10:03:38;;;;;;;7.13;1.70;;;26.40;99.90;;;;;;4919348;29;20047;-70
2023/08/20 10:06:06;;;;;;;6.22;1.88;;;26.40;99.90;;;;;;4919525;29;20035;-70
2023/08/20 10:08:31;;;;;;;6.45;1.80;;;26.50;99.90;;;;;;4919332;29;20051;-70
2023/08/20 10:10:57;;;;;;;10.95;2.30;;;26.60;99.90;;;;;;4936404;29;20039;-70
2023/08/20 10:13:23;;;;;;;8.13;1.83;;;27.70;99.90;;;;;;4918947;29;20043;-71
2023/08/20 10:15:49;;;;;;;7.13;1.70;;;26.80;99.90;;;;;;4919707;29;20164;-70
2023/08/20 10:18:15;;;;;;;8.75;1.85;;;27.30;99.90;;;;;;4918969;29;20080;-71
2023/08/20 10:20:42;;;;;;;8.23;1.92;;;27.10;99.90;;;;;;4918875;29;20040;-70
2023/08/20 10:23:07;;;;;;;7.88;1.77;;;27.00;99.90;;;;;;4918809;29;20043;-70
2023/08/20 10:25:41;;;;;;;8.70;1.95;;;27.10;99.90;;;;;;4918800;29;20043;-70
2023/08/20 10:28:20;;;;;;;6.93;2.22;;;27.10;99.90;;;;;;4918783;29;20040;-70
2023/08/20 10:31:06;;;;;;;7.63;1.77;;;27.30;99.90;;;;;;4935860;29;20051;-70
2023/08/20 10:33:33;;;;;;;9.80;2.10;;;27.50;99.90;;;;;;4918850;29;20047;-70
2023/08/20 10:36:07;;;;;;;7.55;2.05;;;27.20;99.90;;;;;;4918994;29;20115;-70
2023/08/20 10:38:37;;;;;;;6.07;2.20;;;27.40;99.90;;;;;;4918632;29;20108;-70
2023/08/20 10:41:07;;;;;;;8.50;1.98;;;27.00;99.90;;;;;;4918364;29;20044;-70
2023/08/20 10:43:34;;;;;;;6.43;1.50;;;27.30;99.90;;;;;;4917979;29;20040;-70
2023/08/20 10:46:07;;;;;;;10.63;2.03;;;27.10;99.90;;;;;;4918518;29;20039;-71
2023/08/20 10:48:36;;;;;;;8.85;1.83;;;27.20;99.90;;;;;;4918377;29;20055;-71
2023/08/20 10:51:17;;;;;;;7.85;1.70;;;27.20;99.90;;;;;;4918591;29;20404;-71
2023/08/20 10:54:10;;;;;;;7.95;2.10;;;27.40;99.90;;;;;;4918013;29;20094;-70
2023/08/20 10:56:44;;;;;;;11.95;2.17;;;26.90;99.90;;;;;;4918157;29;20479;-70
2023/08/20 10:59:22;;;;;;;6.32;1.75;;;27.10;99.90;;;;;;4918196;29;20047;-70
2023/08/20 11:01:50;;;;;;;7.60;1.63;;;27.20;99.90;;;;;;4918201;29;20098;-70
2023/08/20 11:04:18;;;;;;;6.90;1.80;;;27.00;99.90;;;;;;4917951;29;20555;-70
2023/08/20 11:06:45;;;;;;;8.70;1.65;;;26.90;99.90;;;;;;4918334;29;20050;-70
2023/08/20 11:09:11;;;;;;;8.10;1.85;;;27.10;99.90;;;;;;4918019;29;20040;-70
2023/08/20 11:11:42;;;;;;;5.55;1.40;;;27.00;99.90;;;;;;4935130;29;20040;-70
2023/08/20 11:14:13;;;;;;;7.30;2.15;;;27.40;99.90;;;;;;4917733;29;20091;-70
2023/08/20 11:16:40;;;;;;;7.85;2.33;;;27.30;99.90;;;;;;4935061;29;20083;-70
2023/08/20 11:19:09;;;;;;;6.80;2.30;;;27.80;99.90;;;;;;4917864;29;20043;-71
2023/08/20 11:21:39;;;;;;;7.63;2.10;;;27.10;99.90;;;;;;4917719;29;20043;-71
2023/08/20 11:24:06;;;;;;;8.95;2.45;;;27.40;99.90;;;;;;4917803;29;20036;-70
2023/08/20 11:26:32;;;;;;;7.35;2.03;;;27.50;99.90;;;;;;4902024;29;20169;-70
2023/08/20 11:28:58;;;;;;;8.95;2.17;;;27.70;99.90;;;;;;4901870;29;20094;-71
2023/08/20 11:31:25;;;;;;;9.50;2.25;;;27.40;99.90;;;;;;4917822;29;20326;-70
2023/08/20 11:33:50;;;;;;;9.57;2.55;;;27.60;99.90;;;;;;4917497;29;20468;-70
2023/08/20 11:36:17;;;;;;;9.40;2.42;;;27.40;99.90;;;;;;4918045;29;20039;-70
2023/08/20 11:38:48;;;;;;;11.30;2.28;;;27.60;99.90;;;;;;4917394;29;20054;-70
2023/08/20 11:41:14;;;;;;;7.22;1.98;;;27.20;99.90;;;;;;4917553;29;20044;-71
2023/08/20 11:43:41;;;;;;;7.32;1.70;;;26.90;99.90;;;;;;4917438;29;20047;-70
2023/08/20 11:46:14;;;;;;;5.88;2.05;;;27.10;99.90;;;;;;4917564;29;20043;-70
2023/08/20 11:49:07;;;;;;;9.90;2.50;;;27.30;99.90;;;;;;4917717;29;20912;-71
2023/08/20 11:51:37;;;;;;;10.43;2.65;;;27.90;99.90;;;;;;4917143;29;20044;-70
2023/08/20 11:54:05;;;;;;;8.52;2.72;;;27.50;99.90;;;;;;4917673;29;20054;-70
2023/08/20 11:56:33;;;;;;;5.60;1.67;;;27.50;99.90;;;;;;4901755;29;20043;-70
2023/08/20 11:59:02;;;;;;;5.93;1.70;;;27.60;99.90;;;;;;4917362;29;20043;-70
2023/08/20 12:01:31;;;;;;;5.32;1.20;;;27.70;99.90;;;;;;4917356;29;20455;-70
2023/08/20 12:04:05;;;;;;;7.63;1.73;;;27.80;99.90;;;;;;4917274;29;20051;-70
2023/08/20 12:06:31;;;;;;;5.05;1.50;;;28.00;99.90;;;;;;4917396;29;20048;-71
2023/08/20 12:08:57;;;;;;;5.97;1.83;;;27.80;99.90;;;;;;4934481;29;20043;-70
2023/08/20 12:11:27;;;;;;;5.53;1.23;;;28.40;99.90;;;;;;4901990;29;20084;-71
2023/08/20 12:13:53;;;;;;;7.00;1.58;;;28.50;99.90;;;;;;4901567;29;20079;-71
2023/08/20 12:16:23;;;;;;;7.35;1.40;;;28.20;99.90;;;;;;4917722;29;20146;-70
2023/08/20 12:18:49;;;;;;;6.93;1.67;;;28.30;99.90;;;;;;4917287;29;20047;-70
2023/08/20 12:21:15;;;;;;;6.13;1.50;;;28.30;99.90;;;;;;4917036;29;20044;-71
2023/08/20 12:23:41;;;;;;;4.22;1.50;;;28.50;99.90;;;;;;4919064;29;20043;-71
2023/08/20 12:26:07;;;;;;;5.13;1.80;;;28.60;99.90;;;;;;4920087;29;20080;-71
2023/08/20 12:28:33;;;;;;;4.97;1.58;;;28.80;99.90;;;;;;4937822;29;20047;-71
2023/08/20 12:30:59;;;;;;;9.15;1.45;;;28.90;99.90;;;;;;4917913;29;20421;-70
2023/08/20 12:33:25;;;;;;;4.70;1.42;;;28.70;99.90;;;;;;4917393;29;20585;-70
2023/08/20 12:35:54;;;;;;;7.53;1.73;;;28.60;99.90;;;;;;4917104;29;20126;-70
2023/08/20 12:38:20;;;;;;;3.35;1.05;;;28.50;99.90;;;;;;4917550;29;20419;-70
2023/08/20 12:40:46;;;;;;;4.00;1.38;;;27.70;99.90;;;;;;4916972;29;20043;-70
2023/08/20 12:43:12;;;;;;;6.13;1.00;;;27.70;99.90;;;;;;4933975;29;20448;-70
2023/08/20 12:45:38;;;;;;;3.40;1.38;;;27.80;99.90;;;;;;4934284;29;20091;-70
2023/08/20 12:48:04;;;;;;;3.67;1.05;;;28.10;99.90;;;;;;4917019;29;20123;-70
2023/08/20 12:50:30;;;;;;;4.88;1.00;;;28.10;99.90;;;;;;4916818;29;20040;-70
2023/08/20 12:52:56;;;;;;;6.38;1.50;;;28.40;99.90;;;;;;4916893;29;20462;-70
2023/08/20 12:55:22;;;;;;;3.97;1.30;;;28.60;99.90;;;;;;4900832;29;20508;-70
2023/08/20 12:57:55;;;;;;;9.00;1.20;;;28.70;99.90;;;;;;4917063;29;20082;-70
2023/08/20 13:00:22;;;;;;;8.38;1.50;;;28.80;99.90;;;;;;4901156;29;20043;-70
2023/08/20 13:02:48;;;;;;;2.10;0.82;;;28.70;99.90;;;;;;4916741;29;20051;-70
2023/08/20 13:05:14;;;;;;;4.50;1.38;;;28.70;99.90;;;;;;4916613;29;20130;-70
2023/08/20 13:07:40;;;;;;;4.78;1.20;;;28.70;99.90;;;;;;4919889;29;20044;-70
2023/08/20 13:10:08;;;;;;;6.00;1.33;;;28.70;99.90;;;;;;4904464;29;20036;-70
2023/08/20 13:12:34;;;;;;;4.57;1.10;;;28.40;99.90;;;;;;4920470;29;20168;-70
2023/08/20 13:15:01;;;;;;;4.53;1.48;;;28.60;99.90;;;;;;4919988;29;20138;-70
2023/08/20 13:17:27;;;;;;;4.40;1.30;;;28.50;99.90;;;;;;4904625;29;20125;-71
2023/08/20 13:19:53;;;;;;;4.45;1.27;;;28.40;99.90;;;;;;4920006;29;20051;-70
2023/08/20 13:22:18;;;;;;;6.13;1.10;;;28.50;99.90;;;;;;4919889;29;20046;-70
2023/08/20 13:24:44;;;;;;;7.55;1.42;;;28.20;99.90;;;;;;4920015;29;20076;-69
2023/08/20 13:27:09;;;;;;;7.22;1.30;;;28.70;99.90;;;;;;4919970;29;20031;-70
2023/08/20 13:29:35;;;;;;;6.63;1.67;;;28.80;99.90;;;;;;4920057;29;20039;-71
2023/08/20 13:32:00;;;;;;;4.10;1.50;;;28.80;99.90;;;;;;4920043;29;20111;-70
2023/08/20 13:34:26;;;;;;;3.78;1.10;;;28.50;99.90;;;;;;4919683;29;20546;-70
2023/08/20 13:36:52;;;;;;;4.78;0.98;;;28.80;99.90;;;;;;4919648;29;20047;-70
2023/08/20 13:39:18;;;;;;;5.30;1.10;;;28.90;99.90;;;;;;4919964;29;20053;-70
2023/08/20 13:41:44;;;;;;;6.65;1.30;;;28.90;99.90;;;;;;4919652;29;20515;-70
2023/08/20 13:44:10;;;;;;;6.00;1.42;;;28.80;99.90;;;;;;4919879;29;20042;-70
2023/08/20 13:46:35;;;;;;;3.63;1.00;;;28.40;99.90;;;;;;4919694;29;20039;-70
2023/08/20 13:49:02;;;;;;;4.43;1.35;;;28.30;99.90;;;;;;4903747;29;20036;-70